< < Back
Terminal Aerodrome Forecast


Current Version              Previous Versions:   1  2  3  4  5  6  7  8  9  

Terminal Aerodrome Forecast

533
FTUS42 KTAE 232300
TAFTLH
TAF
KTLH 232320Z 2400/2424 34004KT P6SM FEW250
     FM240300 00000KT P6SM BKN250
     FM241600 03005KT P6SM SCT250=



Latest METAR

105
SAUS80 KWBC 250000 RRC
MTRTLH
METAR KTLH 242353Z 00000KT 10SM CLR 17/09 A2998 RMK AO2 SLP152 T01720089
10261 20172 51008 $


USA.gov is the U.S. government's official web portal to all federal, state and local government web resources and services.